Time;durP1;ratioP1;P1;durP2;ratioP2;P2;SDS_P1;SDS_P2;PMS_P1;PMS_P2;Temp;Humidity;BMP_temperature;BMP_pressure;BME280_temperature;BME280_humidity;BME280_pressure;Samples;Min_cycle;Max_cycle;Signal;HPM_P1;HPM_P2
2023/08/03 00:00:51;;;;;;;;;;;22.20;70.30;;;;;;10353313;28;93709;-66
2023/08/03 00:05:53;;;;;;;;;;;22.20;70.30;;;;;;10351858;28;93556;-66
2023/08/03 00:10:55;;;;;;;;;;;22.20;70.30;;;;;;10369454;28;94443;-67
2023/08/03 00:15:57;;;;;;;;;;;22.20;70.10;;;;;;10367958;28;96311;-67
2023/08/03 00:20:59;;;;;;;;;;;22.20;70.40;;;;;;10369590;28;93797;-66
2023/08/03 00:26:00;;;;;;;;;;;22.20;70.30;;;;;;10369988;28;94479;-66
2023/08/03 00:31:02;;;;;;;;;;;22.20;70.30;;;;;;10368616;28;93474;-66
2023/08/03 00:36:04;;;;;;;;;;;22.20;70.40;;;;;;10368879;28;93393;-66
2023/08/03 00:41:06;;;;;;;;;;;22.20;70.40;;;;;;10359405;28;94416;-66
2023/08/03 00:46:08;;;;;;;;;;;22.20;70.30;;;;;;10348832;28;93838;-65
2023/08/03 00:51:11;;;;;;;;;;;22.20;70.30;;;;;;10382623;28;94208;-65
2023/08/03 00:56:13;;;;;;;;;;;22.10;70.20;;;;;;10364248;28;94390;-67
2023/08/03 01:01:15;;;;;;;;;;;22.10;70.20;;;;;;10381820;28;93439;-66
2023/08/03 01:06:17;;;;;;;;;;;22.10;70.00;;;;;;10380330;28;95692;-67
2023/08/03 01:11:18;;;;;;;;;;;22.10;70.10;;;;;;10383087;28;93361;-67
2023/08/03 01:16:20;;;;;;;;;;;22.10;70.00;;;;;;10383250;28;94459;-67
2023/08/03 01:21:22;;;;;;;;;;;22.10;70.00;;;;;;10381754;28;94548;-68
2023/08/03 01:26:24;;;;;;;;;;;22.10;70.00;;;;;;10364814;28;94419;-66
2023/08/03 01:31:26;;;;;;;;;;;22.10;70.00;;;;;;10380987;28;93952;-66
2023/08/03 01:36:28;;;;;;;;;;;22.10;69.90;;;;;;10381420;28;93320;-65
2023/08/03 01:41:30;;;;;;;;;;;22.10;69.90;;;;;;10365009;28;93610;-66
2023/08/03 01:46:32;;;;;;;;;;;22.10;69.80;;;;;;10381500;28;95670;-66
2023/08/03 01:51:33;;;;;;;;;;;22.10;69.80;;;;;;10377409;28;94449;-67
2023/08/03 01:56:35;;;;;;;;;;;22.10;69.70;;;;;;10371143;28;95708;-67
2023/08/03 02:01:37;;;;;;;;;;;22.00;69.60;;;;;;10374689;28;94440;-66
2023/08/03 02:06:39;;;;;;;;;;;22.00;69.60;;;;;;10373902;28;93409;-66
2023/08/03 02:11:41;;;;;;;;;;;22.00;69.60;;;;;;10373223;28;93861;-66
2023/08/03 02:16:45;;;;;;;;;;;22.00;69.60;;;;;;10354996;28;114150;-65
2023/08/03 02:21:47;;;;;;;;;;;22.00;69.60;;;;;;10372507;28;94081;-66
2023/08/03 02:26:49;;;;;;;;;;;22.00;69.50;;;;;;10372903;28;93497;-66
2023/08/03 02:31:50;;;;;;;;;;;22.00;69.50;;;;;;10373575;28;93941;-66
2023/08/03 02:36:52;;;;;;;;;;;22.00;69.50;;;;;;10367271;28;94450;-66
2023/08/03 02:41:54;;;;;;;;;;;22.00;69.50;;;;;;10329946;28;94743;-66
2023/08/03 02:46:56;;;;;;;;;;;22.00;69.40;;;;;;10326729;28;95605;-66
2023/08/03 02:51:58;;;;;;;;;;;22.00;69.40;;;;;;10331013;28;92623;-66
2023/08/03 02:57:00;;;;;;;;;;;22.00;69.40;;;;;;10331455;28;93395;-66
2023/08/03 03:02:02;;;;;;;;;;;22.00;69.40;;;;;;10329916;28;94910;-66
2023/08/03 03:07:04;;;;;;;;;;;22.00;69.40;;;;;;10330243;28;94427;-66
2023/08/03 03:12:06;;;;;;;;;;;22.00;69.40;;;;;;10329158;28;94459;-67
2023/08/03 03:17:08;;;;;;;;;;;22.00;69.30;;;;;;10329386;28;94009;-67
2023/08/03 03:22:11;;;;;;;;;;;22.00;69.30;;;;;;10330211;28;92298;-67
2023/08/03 03:27:12;;;;;;;;;;;22.00;69.40;;;;;;10330213;28;94842;-65
2023/08/03 03:32:14;;;;;;;;;;;22.00;69.30;;;;;;10329061;28;93477;-66
2023/08/03 03:37:16;;;;;;;;;;;21.90;69.30;;;;;;10327006;28;95943;-66
2023/08/03 03:42:18;;;;;;;;;;;21.90;69.40;;;;;;10329226;28;93477;-66
2023/08/03 03:47:19;;;;;;;;;;;21.90;69.30;;;;;;10329371;28;93418;-66
2023/08/03 03:52:21;;;;;;;;;;;21.90;69.30;;;;;;10329537;28;93493;-67
2023/08/03 03:57:23;;;;;;;;;;;21.90;69.20;;;;;;10329113;28;93840;-66
2023/08/03 04:02:25;;;;;;;;;;;21.90;69.20;;;;;;10329255;28;94442;-66
2023/08/03 04:07:27;;;;;;;;;;;21.90;69.20;;;;;;10327551;28;93360;-66
2023/08/03 04:12:29;;;;;;;;;;;21.90;69.20;;;;;;10329073;28;92656;-66
2023/08/03 04:17:30;;;;;;;;;;;21.90;69.20;;;;;;10344212;22;94431;-64
2023/08/03 04:22:32;;;;;;;;;;;21.90;69.20;;;;;;10286138;28;94441;-64
2023/08/03 04:27:34;;;;;;;;;;;21.90;69.30;;;;;;10284258;28;96356;-63
2023/08/03 04:32:35;;;;;;;;;;;21.90;69.30;;;;;;10286866;28;93483;-64
2023/08/03 04:37:37;;;;;;;;;;;21.80;69.20;;;;;;10286554;28;93580;-62
2023/08/03 04:42:39;;;;;;;;;;;21.80;69.30;;;;;;10287569;28;94421;-64
2023/08/03 04:47:40;;;;;;;;;;;21.80;69.30;;;;;;10755933;22;95729;-63
2023/08/03 04:52:42;;;;;;;;;;;21.80;69.30;;;;;;10365330;28;93904;-63
2023/08/03 04:57:44;;;;;;;;;;;21.80;69.30;;;;;;10336248;28;94588;-63
2023/08/03 05:02:45;;;;;;;;;;;21.80;69.40;;;;;;10329504;28;94063;-62
2023/08/03 05:07:47;;;;;;;;;;;21.80;69.40;;;;;;10327050;28;95543;-63
2023/08/03 05:12:49;;;;;;;;;;;21.80;69.40;;;;;;10326535;28;93367;-62
2023/08/03 05:17:51;;;;;;;;;;;21.70;69.50;;;;;;10325332;28;95875;-62
2023/08/03 05:22:52;;;;;;;;;;;21.70;69.40;;;;;;10327338;28;92784;-63
2023/08/03 05:27:54;;;;;;;;;;;21.70;69.40;;;;;;10331615;28;94450;-63
2023/08/03 05:32:56;;;;;;;;;;;21.70;69.60;;;;;;10333819;28;94036;-62
2023/08/03 05:37:57;;;;;;;;;;;21.70;69.70;;;;;;10333515;28;95773;-62
2023/08/03 05:42:59;;;;;;;;;;;21.70;69.70;;;;;;10332849;28;94409;-63
2023/08/03 05:48:02;;;;;;;;;;;21.70;69.70;;;;;;10332824;28;94462;-63
2023/08/03 05:53:05;;;;;;;;;;;21.80;69.80;;;;;;10315970;28;93424;-63
2023/08/03 05:58:08;;;;;;;;;;;21.80;69.90;;;;;;10332910;28;95382;-62
2023/08/03 06:03:11;;;;;;;;;;;21.70;69.90;;;;;;10315186;28;94557;-62
2023/08/03 06:08:23;;;;;;;;;;;21.80;70.00;;;;;;10330218;28;96049;-63
2023/08/03 06:13:26;;;;;;;;;;;21.80;70.10;;;;;;10332833;28;94687;-64
2023/08/03 06:18:29;;;;;;;;;;;21.70;70.10;;;;;;10332721;28;93896;-64
2023/08/03 06:23:31;;;;;;;;;;;21.70;70.10;;;;;;10314383;28;94454;-64
2023/08/03 06:28:33;;;;;;;;;;;21.70;70.20;;;;;;10332078;28;93500;-64
2023/08/03 06:33:34;;;;;;;;;;;21.70;70.40;;;;;;10331765;28;93473;-64
2023/08/03 06:38:36;;;;;;;;;;;21.70;70.60;;;;;;10331664;28;93382;-64
2023/08/03 06:43:38;;;;;;;;;;;21.70;70.60;;;;;;10335476;28;92698;-64
2023/08/03 06:48:40;;;;;;;;;;;21.70;70.80;;;;;;10357399;28;94451;-63
2023/08/03 06:53:42;;;;;;;;;;;21.70;70.90;;;;;;10357777;28;94055;-63
2023/08/03 06:58:44;;;;;;;;;;;21.80;71.00;;;;;;10351708;28;96850;-63
2023/08/03 07:03:46;;;;;;;;;;;21.80;71.10;;;;;;10336316;28;94462;-62
2023/08/03 07:08:48;;;;;;;;;;;21.80;71.20;;;;;;10328560;28;94004;-63
2023/08/03 07:13:49;;;;;;;;;;;21.70;71.20;;;;;;10330307;28;94538;-63
2023/08/03 07:18:51;;;;;;;;;;;21.80;71.30;;;;;;10330064;28;92722;-62
2023/08/03 07:23:53;;;;;;;;;;;21.80;71.40;;;;;;10329115;28;93609;-62
2023/08/03 07:28:55;;;;;;;;;;;21.80;71.50;;;;;;10329820;28;93464;-63
2023/08/03 07:33:57;;;;;;;;;;;21.80;72.50;;;;;;10330101;28;92761;-63
2023/08/03 07:38:59;;;;;;;;;;;21.70;71.50;;;;;;10329653;28;94405;-63
2023/08/03 07:44:00;;;;;;;;;;;21.80;71.60;;;;;;10330150;28;94882;-63
2023/08/03 07:49:02;;;;;;;;;;;21.70;71.70;;;;;;10307740;28;96850;-63
2023/08/03 07:54:04;;;;;;;;;;;21.70;71.80;;;;;;10328388;28;93135;-63
2023/08/03 07:59:06;;;;;;;;;;;21.70;71.80;;;;;;10311663;28;94994;-63
2023/08/03 08:04:07;;;;;;;;;;;21.70;72.00;;;;;;10328864;28;92972;-63
2023/08/03 08:09:09;;;;;;;;;;;21.70;72.00;;;;;;10328676;28;94448;-63
2023/08/03 08:14:11;;;;;;;;;;;21.70;72.10;;;;;;10329440;28;94410;-63
2023/08/03 08:19:12;;;;;;;;;;;21.70;72.10;;;;;;10328782;28;93459;-63
2023/08/03 08:24:14;;;;;;;;;;;21.70;72.10;;;;;;10329069;28;94042;-63
2023/08/03 08:29:16;;;;;;;;;;;21.80;72.20;;;;;;10310819;28;93813;-63
2023/08/03 08:34:18;;;;;;;;;;;21.80;72.10;;;;;;10328120;28;94571;-64
2023/08/03 08:39:20;;;;;;;;;;;21.80;72.10;;;;;;10325467;28;97143;-63
2023/08/03 08:44:21;;;;;;;;;;;21.80;72.30;;;;;;10328668;28;93777;-63
2023/08/03 08:49:23;;;;;;;;;;;21.80;72.30;;;;;;10326725;28;93529;-64
2023/08/03 08:54:34;;;;;;;;;;;21.80;72.10;;;;;;10327593;28;93289;-64
2023/08/03 08:59:42;;;;;;;;;;;21.80;72.00;;;;;;10326954;28;94049;-64
2023/08/03 09:04:43;;;;;;;;;;;21.80;72.50;;;;;;10335187;28;96033;-64
2023/08/03 09:09:45;;;;;;;;;;;21.90;72.30;;;;;;10333916;28;93521;-64
2023/08/03 09:14:50;;;;;;;;;;;21.90;71.60;;;;;;10335006;28;92726;-64
2023/08/03 09:19:53;;;;;;;;;;;21.90;71.30;;;;;;10334257;28;92770;-64
2023/08/03 09:25:07;;;;;;;;;;;21.90;70.70;;;;;;10333942;28;93320;-64
2023/08/03 09:30:09;;;;;;;;;;;21.90;70.30;;;;;;10314027;28;96928;-65
2023/08/03 09:35:20;;;;;;;;;;;21.90;70.50;;;;;;10333737;28;93988;-64
2023/08/03 09:40:23;;;;;;;;;;;21.90;70.20;;;;;;10316674;28;93285;-64
2023/08/03 09:45:26;;;;;;;;;;;22.00;70.40;;;;;;10333253;28;94452;-66
2023/08/03 09:50:33;;;;;;;;;;;22.00;70.90;;;;;;10332416;28;93358;-65
2023/08/03 09:55:36;;;;;;;;;;;22.00;70.30;;;;;;10315738;28;94654;-66
2023/08/03 10:00:38;;;;;;;;;;;21.90;70.20;;;;;;10332877;28;93415;-66
2023/08/03 10:06:00;;;;;;;;;;;21.90;70.20;;;;;;10333061;28;93771;-65
2023/08/03 10:11:05;;;;;;;;;;;21.90;70.20;;;;;;10313849;28;93484;-66
2023/08/03 10:16:06;;;;;;;;;;;21.90;69.90;;;;;;10332196;28;93441;-66
2023/08/03 10:21:08;;;;;;;;;;;21.90;69.80;;;;;;10311661;28;96662;-67
2023/08/03 10:26:19;;;;;;;;;;;21.90;69.80;;;;;;10331693;28;93497;-67
2023/08/03 10:31:22;;;;;;;;;;;22.00;69.70;;;;;;10340489;28;93475;-67
2023/08/03 10:36:38;;;;;;;;;;;22.00;69.70;;;;;;10352382;28;93645;-67
2023/08/03 10:41:44;;;;;;;;;;;22.00;69.70;;;;;;10369574;28;94509;-67
2023/08/03 10:46:50;;;;;;;;;;;22.00;69.70;;;;;;10368114;28;93382;-67
2023/08/03 10:52:12;;;;;;;;;;;22.00;70.00;;;;;;10372892;28;94080;-65
2023/08/03 10:57:13;;;;;;;;;;;22.10;69.90;;;;;;10374684;28;93157;-63
2023/08/03 11:02:19;;;;;;;;;;;22.10;70.00;;;;;;10372999;28;94535;-66
2023/08/03 11:07:24;;;;;;;;;;;22.10;69.80;;;;;;10372513;28;93391;-65
2023/08/03 11:12:27;;;;;;;;;;;22.10;69.90;;;;;;10370039;28;96820;-65
2023/08/03 11:17:29;;;;;;;;;;;22.10;70.20;;;;;;10354786;28;94378;-66
2023/08/03 11:22:32;;;;;;;;;;;22.10;70.30;;;;;;10372519;28;94682;-65
2023/08/03 11:27:34;;;;;;;;;;;22.10;70.20;;;;;;10371147;28;93450;-65
2023/08/03 11:32:36;;;;;;;;;;;22.10;70.30;;;;;;10372906;28;94443;-67
2023/08/03 11:37:38;;;;;;;;;;;22.10;70.30;;;;;;10371102;28;93311;-65
2023/08/03 11:42:43;;;;;;;;;;;22.10;70.40;;;;;;10353060;28;94656;-65
2023/08/03 11:47:45;;;;;;;;;;;22.10;70.70;;;;;;10371993;28;93696;-65
2023/08/03 11:52:47;;;;;;;;;;;22.10;70.30;;;;;;10371724;28;93850;-64
2023/08/03 11:58:07;;;;;;;;;;;22.10;70.30;;;;;;10370121;28;92642;-65
2023/08/03 12:03:10;;;;;;;;;;;22.10;70.30;;;;;;10368156;28;96197;-67
2023/08/03 12:08:12;;;;;;;;;;;22.10;70.30;;;;;;10370877;28;93609;-66
2023/08/03 12:13:14;;;;;;;;;;;22.10;70.30;;;;;;10370894;28;94439;-66
2023/08/03 12:18:15;;;;;;;;;;;22.10;70.40;;;;;;10369775;28;94307;-66
2023/08/03 12:23:17;;;;;;;;;;;22.10;70.30;;;;;;10370252;28;94453;-66
2023/08/03 12:28:19;;;;;;;;;;;22.10;70.20;;;;;;10369110;28;93412;-66
2023/08/03 12:33:21;;;;;;;;;;;22.10;70.00;;;;;;10351567;28;94605;-67
2023/08/03 12:38:23;;;;;;;;;;;22.10;70.00;;;;;;10351178;28;94294;-66
2023/08/03 12:43:25;;;;;;;;;;;22.10;69.90;;;;;;10369548;28;93500;-66
2023/08/03 12:48:27;;;;;;;;;;;22.10;70.00;;;;;;10368556;28;93035;-66
2023/08/03 12:53:30;;;;;;;;;;;22.10;70.00;;;;;;10349558;28;96057;-66
2023/08/03 12:58:32;;;;;;;;;;;22.10;70.20;;;;;;10368827;28;94137;-66
2023/08/03 13:03:36;;;;;;;;;;;22.10;70.30;;;;;;10368876;28;93595;-65
2023/08/03 13:08:38;;;;;;;;;;;22.10;70.30;;;;;;10368513;28;93407;-65
2023/08/03 13:13:40;;;;;;;;;;;22.10;70.30;;;;;;10368434;28;93488;-65
2023/08/03 13:18:41;;;;;;;;;;;22.10;70.40;;;;;;10369340;28;92770;-65
2023/08/03 13:23:44;;;;;;;;;;;22.10;70.30;;;;;;10369127;28;93382;-65
2023/08/03 13:28:50;;;;;;;;;;;22.10;70.30;;;;;;10351292;28;94099;-65
2023/08/03 13:33:52;;;;;;;;;;;22.10;70.30;;;;;;10368090;28;94452;-65
2023/08/03 13:38:54;;;;;;;;;;;22.10;70.30;;;;;;10349409;28;94504;-64
2023/08/03 13:43:55;;;;;;;;;;;22.10;70.20;;;;;;10365881;28;95998;-65
2023/08/03 13:48:57;;;;;;;;;;;22.10;70.20;;;;;;10372176;28;94419;-64
2023/08/03 13:54:00;;;;;;;;;;;22.00;70.10;;;;;;10356700;28;94521;-66
2023/08/03 13:59:01;;;;;;;;;;;22.10;70.10;;;;;;10373770;28;93416;-64
2023/08/03 14:04:03;;;;;;;;;;;22.10;70.20;;;;;;10356216;28;93259;-65
2023/08/03 14:09:05;;;;;;;;;;;22.10;70.00;;;;;;10355499;28;94479;-65
2023/08/03 14:14:10;;;;;;;;;;;22.00;70.00;;;;;;10373584;28;94130;-65
2023/08/03 14:19:32;;;;;;;;;;;22.10;70.00;;;;;;10374584;28;94561;-65
2023/08/03 14:24:34;;;;;;;;;;;22.10;69.90;;;;;;10374863;28;94728;-65
2023/08/03 14:29:36;;;;;;;;;;;22.10;69.90;;;;;;10374074;28;94367;-66
2023/08/03 14:34:37;;;;;;;;;;;22.10;69.80;;;;;;10352774;28;95024;-65
2023/08/03 14:39:42;;;;;;;;;;;22.10;69.70;;;;;;10374071;28;93383;-64
2023/08/03 14:44:44;;;;;;;;;;;22.10;69.60;;;;;;10372593;28;94518;-64
2023/08/03 14:49:52;;;;;;;;;;;22.10;69.60;;;;;;10356373;28;93265;-65
2023/08/03 14:54:56;;;;;;;;;;;22.10;69.50;;;;;;10354794;28;94131;-65
2023/08/03 14:59:58;;;;;;;;;;;22.10;69.40;;;;;;10354696;28;94540;-65
2023/08/03 15:05:01;;;;;;;;;;;22.10;69.30;;;;;;10337863;28;94036;-65
2023/08/03 15:10:04;;;;;;;;;;;22.10;69.30;;;;;;10373404;28;93678;-65
2023/08/03 15:15:06;;;;;;;;;;;22.10;69.30;;;;;;10371273;28;92918;-64
2023/08/03 15:20:10;;;;;;;;;;;22.10;69.10;;;;;;10354291;28;94903;-65
2023/08/03 15:25:12;;;;;;;;;;;22.10;69.10;;;;;;10369196;28;96984;-65
2023/08/03 15:30:15;;;;;;;;;;;22.10;69.00;;;;;;10371041;28;93675;-65
2023/08/03 15:35:20;;;;;;;;;;;22.10;69.00;;;;;;10371623;28;93084;-65
2023/08/03 15:40:22;;;;;;;;;;;22.10;68.90;;;;;;10369030;28;93598;-65
2023/08/03 15:45:28;;;;;;;;;;;22.10;69.00;;;;;;10330159;28;93685;-65
2023/08/03 15:50:32;;;;;;;;;;;22.10;69.00;;;;;;10339856;28;94641;-65
2023/08/03 15:55:38;;;;;;;;;;;22.10;68.90;;;;;;10329485;28;94671;-65
2023/08/03 16:00:43;;;;;;;;;;;22.10;69.10;;;;;;10327123;28;92742;-66
2023/08/03 16:05:45;;;;;;;;;;;22.10;69.00;;;;;;10312623;28;94326;-62
2023/08/03 16:10:46;;;;;;;;;;;22.20;69.30;;;;;;10326638;28;94612;-63
2023/08/03 16:15:57;;;;;;;;;;;22.30;71.20;;;;;;10309705;28;96846;-63
2023/08/03 16:21:03;;;;;;;;;;;22.30;70.10;;;;;;10329285;28;92553;-63
2023/08/03 16:26:06;;;;;;;;;;;22.30;71.20;;;;;;10328573;28;93159;-62
2023/08/03 16:31:14;;;;;;;;;;;22.40;72.60;;;;;;10330182;28;94447;-65
2023/08/03 16:36:18;;;;;;;;;;;22.40;72.20;;;;;;10329767;28;93548;-66
2023/08/03 16:41:20;;;;;;;;;;;22.50;72.20;;;;;;10329118;28;93423;-65
2023/08/03 16:46:21;;;;;;;;;;;22.60;71.50;;;;;;10326577;28;95657;-65
2023/08/03 16:51:23;;;;;;;;;;;22.70;70.60;;;;;;10327822;28;92862;-66
2023/08/03 16:56:25;;;;;;;;;;;22.70;69.90;;;;;;10328552;28;94019;-65
2023/08/03 17:01:27;;;;;;;;;;;22.70;69.40;;;;;;10326836;28;93422;-66
2023/08/03 17:06:29;;;;;;;;;;;22.70;69.40;;;;;;10306628;28;96052;-65
2023/08/03 17:11:30;;;;;;;;;;;22.70;69.30;;;;;;10309990;28;94471;-66
2023/08/03 17:16:32;;;;;;;;;;;22.70;69.10;;;;;;10327172;28;93460;-65
2023/08/03 17:21:34;;;;;;;;;;;22.60;69.10;;;;;;10328847;28;94459;-66
2023/08/03 17:26:36;;;;;;;;;;;22.60;69.00;;;;;;10316275;28;94617;-66
2023/08/03 17:31:38;;;;;;;;;;;22.60;69.20;;;;;;10334451;28;93499;-67
2023/08/03 17:36:40;;;;;;;;;;;22.50;69.20;;;;;;10335138;28;94432;-66
2023/08/03 17:41:45;;;;;;;;;;;22.50;69.20;;;;;;10334624;28;93141;-66
2023/08/03 17:46:47;;;;;;;;;;;22.50;69.30;;;;;;10334232;28;94472;-66
2023/08/03 17:51:49;;;;;;;;;;;22.50;69.40;;;;;;10333592;28;94477;-66
2023/08/03 17:56:51;;;;;;;;;;;22.60;69.40;;;;;;10313972;28;96849;-65
2023/08/03 18:01:53;;;;;;;;;;;22.60;69.20;;;;;;10316089;28;93393;-67
2023/08/03 18:06:55;;;;;;;;;;;22.60;69.20;;;;;;10333331;28;94499;-66
2023/08/03 18:11:56;;;;;;;;;;;22.50;69.20;;;;;;10334218;28;94064;-66
2023/08/03 18:16:58;;;;;;;;;;;22.50;69.20;;;;;;10333624;28;93467;-64
2023/08/03 18:22:01;;;;;;;;;;;22.50;69.10;;;;;;10315543;28;93110;-63
2023/08/03 18:27:03;;;;;;;;;;;22.50;68.90;;;;;;10314782;28;94347;-63
2023/08/03 18:32:05;;;;;;;;;;;22.50;69.20;;;;;;10331345;28;93341;-65
2023/08/03 18:37:06;;;;;;;;;;;22.50;68.90;;;;;;10331076;28;94733;-65
2023/08/03 18:42:08;;;;;;;;;;;22.40;68.80;;;;;;10332611;28;93928;-65
2023/08/03 18:47:10;;;;;;;;;;;22.40;68.50;;;;;;10311629;28;96359;-65
2023/08/03 18:52:12;;;;;;;;;;;22.40;68.40;;;;;;10331879;28;94379;-65
2023/08/03 18:57:14;;;;;;;;;;;22.30;68.60;;;;;;10331579;28;93643;-65
2023/08/03 19:02:16;;;;;;;;;;;22.30;68.60;;;;;;10331904;28;93968;-65
2023/08/03 19:07:18;;;;;;;;;;;22.30;68.60;;;;;;10331439;28;93452;-65
2023/08/03 19:12:20;;;;;;;;;;;22.20;68.70;;;;;;10336540;28;93494;-64
2023/08/03 19:17:22;;;;;;;;;;;22.20;68.40;;;;;;10343121;28;93276;-65
2023/08/03 19:22:23;;;;;;;;;;;22.20;68.50;;;;;;10367326;28;93048;-65
2023/08/03 19:27:26;;;;;;;;;;;22.20;68.80;;;;;;10348683;28;94527;-64
2023/08/03 19:32:28;;;;;;;;;;;22.20;69.00;;;;;;10372572;28;93440;-64
2023/08/03 19:37:29;;;;;;;;;;;22.10;69.00;;;;;;10352620;28;96903;-65
2023/08/03 19:42:31;;;;;;;;;;;22.10;69.10;;;;;;10371354;28;93439;-65
2023/08/03 19:47:33;;;;;;;;;;;22.10;69.20;;;;;;10370824;28;93065;-63
2023/08/03 19:52:35;;;;;;;;;;;22.10;69.20;;;;;;10371346;28;93450;-63
2023/08/03 19:57:40;;;;;;;;;;;22.10;69.70;;;;;;10371279;28;94088;-63
2023/08/03 20:02:47;;;;;;;;;;;22.20;69.40;;;;;;10370968;28;93602;-63
2023/08/03 20:07:51;;;;;;;;;;;22.20;69.30;;;;;;10371683;28;94877;-63
2023/08/03 20:12:54;;;;;;;;;;;22.20;69.50;;;;;;10370861;28;92742;-63
2023/08/03 20:18:12;;;;;;;;;;;22.20;69.60;;;;;;10369766;28;93524;-64
2023/08/03 20:23:16;;;;;;;;;;;22.20;69.60;;;;;;10369977;28;93279;-63
2023/08/03 20:28:18;;;;;;;;;;;22.20;69.80;;;;;;10366816;28;95995;-64
2023/08/03 20:33:26;;;;;;;;;;;22.20;69.90;;;;;;10369886;28;93217;-63
2023/08/03 20:38:28;;;;;;;;;;;22.10;70.00;;;;;;10368743;28;93487;-63
2023/08/03 20:43:33;;;;;;;;;;;22.10;69.90;;;;;;10369528;28;93297;-63
2023/08/03 20:48:39;;;;;;;;;;;22.10;70.20;;;;;;10368857;28;94589;-63
2023/08/03 20:53:41;;;;;;;;;;;22.10;70.20;;;;;;10369422;28;93520;-63
2023/08/03 20:58:44;;;;;;;;;;;22.10;70.20;;;;;;10373007;28;93411;-63
2023/08/03 21:03:46;;;;;;;;;;;22.10;70.30;;;;;;10377584;28;93683;-63
2023/08/03 21:08:48;;;;;;;;;;;22.10;70.30;;;;;;10375221;28;93528;-63
2023/08/03 21:13:49;;;;;;;;;;;22.00;70.30;;;;;;10376557;28;94539;-64
2023/08/03 21:18:51;;;;;;;;;;;22.10;70.30;;;;;;10356136;28;95936;-65
2023/08/03 21:23:56;;;;;;;;;;;22.10;71.10;;;;;;10374671;28;93464;-64
2023/08/03 21:28:58;;;;;;;;;;;22.30;72.40;;;;;;10375427;28;94725;-63
2023/08/03 21:33:59;;;;;;;;;;;22.50;71.70;;;;;;10375267;28;93912;-64
2023/08/03 21:39:03;;;;;;;;;;;22.60;70.80;;;;;;10375663;28;93227;-65
2023/08/03 21:44:06;;;;;;;;;;;22.50;70.80;;;;;;10374748;28;93477;-65
2023/08/03 21:49:08;;;;;;;;;;;22.50;70.90;;;;;;10375312;28;93945;-65
2023/08/03 21:54:10;;;;;;;;;;;22.40;71.00;;;;;;10376501;28;92799;-64
2023/08/03 21:59:11;;;;;;;;;;;22.40;71.10;;;;;;10373946;28;94077;-64
2023/08/03 22:04:14;;;;;;;;;;;22.40;71.10;;;;;;10374257;28;93496;-65
2023/08/03 22:09:16;;;;;;;;;;;22.30;71.00;;;;;;10369301;28;96364;-64
2023/08/03 22:14:18;;;;;;;;;;;22.30;71.00;;;;;;10373849;28;93500;-65
2023/08/03 22:19:19;;;;;;;;;;;22.30;71.00;;;;;;10373876;28;94547;-64
2023/08/03 22:24:22;;;;;;;;;;;22.30;71.10;;;;;;10375861;28;94476;-64
2023/08/03 22:29:24;;;;;;;;;;;22.20;71.00;;;;;;10373363;28;94451;-65
2023/08/03 22:34:25;;;;;;;;;;;22.20;71.00;;;;;;10373504;28;93123;-64
2023/08/03 22:39:27;;;;;;;;;;;22.20;70.90;;;;;;10373511;28;93408;-65
2023/08/03 22:44:29;;;;;;;;;;;22.20;71.00;;;;;;10374071;28;92631;-65
2023/08/03 22:49:31;;;;;;;;;;;22.20;71.00;;;;;;10372984;28;94285;-64
2023/08/03 22:54:33;;;;;;;;;;;22.20;70.90;;;;;;10355421;28;94449;-65
2023/08/03 22:59:34;;;;;;;;;;;22.20;70.60;;;;;;10369781;28;95885;-65
2023/08/03 23:04:36;;;;;;;;;;;22.20;70.50;;;;;;10355291;28;93385;-65
2023/08/03 23:09:38;;;;;;;;;;;22.10;70.40;;;;;;10372360;28;93456;-65
2023/08/03 23:14:39;;;;;;;;;;;22.10;70.40;;;;;;10373584;28;94396;-65
2023/08/03 23:19:41;;;;;;;;;;;22.10;70.50;;;;;;10373015;28;94381;-64
2023/08/03 23:24:49;;;;;;;;;;;22.00;70.50;;;;;;10372455;28;93501;-65
2023/08/03 23:29:50;;;;;;;;;;;22.00;70.50;;;;;;10373197;28;94485;-64
2023/08/03 23:34:52;;;;;;;;;;;22.00;70.30;;;;;;10373995;28;93670;-65
2023/08/03 23:39:53;;;;;;;;;;;21.90;70.30;;;;;;10371720;28;93999;-66
2023/08/03 23:44:55;;;;;;;;;;;21.90;70.20;;;;;;10372031;28;92840;-65
2023/08/03 23:49:57;;;;;;;;;;;21.90;70.20;;;;;;10369312;28;97028;-63
2023/08/03 23:54:59;;;;;;;;;;;21.90;70.20;;;;;;10371615;28;94635;-65
